createdAt,value
2018-04-10T00:00:15.586Z,10.46
2018-04-10T00:02:08.476Z,10.41
2018-04-10T00:03:08.340Z,10.42
2018-04-10T00:05:01.192Z,10.42
2018-04-10T00:06:01.088Z,10.30
2018-04-10T00:07:54.004Z,10.26
2018-04-10T00:08:53.837Z,10.24
2018-04-10T00:10:46.746Z,10.20
2018-04-10T00:11:46.589Z,10.12
2018-04-10T00:13:39.964Z,10.08
2018-04-10T00:14:39.343Z,10.06
2018-04-10T00:16:32.432Z,10.12
2018-04-10T00:17:32.203Z,10.06
2018-04-10T00:19:25.041Z,10.08
2018-04-10T00:20:24.947Z,9.98
2018-04-10T00:22:17.793Z,9.88
2018-04-10T00:23:17.686Z,9.87
2018-04-10T00:25:10.629Z,9.88
2018-04-10T00:26:10.550Z,9.83
2018-04-10T00:28:03.401Z,9.81
2018-04-10T00:29:03.283Z,9.77
2018-04-10T00:30:56.144Z,9.80
2018-04-10T00:31:56.056Z,9.77
2018-04-10T00:33:48.898Z,9.78
2018-04-10T00:34:48.799Z,9.78
2018-04-10T00:36:41.627Z,9.81
2018-04-10T00:37:41.532Z,9.78
2018-04-10T00:39:34.402Z,9.66
2018-04-10T00:40:34.287Z,9.67
2018-04-10T00:42:27.151Z,9.67
2018-04-10T00:43:27.032Z,9.66
2018-04-10T00:45:19.902Z,9.54
2018-04-10T00:46:19.786Z,9.59
2018-04-10T00:48:12.672Z,9.59
2018-04-10T00:49:12.567Z,9.60
2018-04-10T00:51:05.404Z,9.62
2018-04-10T00:52:05.347Z,9.67
2018-04-10T00:53:58.650Z,9.65
2018-04-10T00:54:58.120Z,9.59
2018-04-10T00:56:50.941Z,9.65
2018-04-10T00:57:50.781Z,9.66
2018-04-10T00:59:43.636Z,9.66
2018-04-10T01:00:43.547Z,9.51
2018-04-10T01:02:36.490Z,9.37
2018-04-10T01:03:36.399Z,9.42
2018-04-10T01:05:29.239Z,9.37
2018-04-10T01:06:29.139Z,9.42
2018-04-10T01:08:22.014Z,9.36
2018-04-10T01:09:21.899Z,9.41
2018-04-10T01:11:14.752Z,9.44
2018-04-10T01:12:14.639Z,9.26
2018-04-10T01:14:08.009Z,9.37
2018-04-10T01:15:07.928Z,9.30
2018-04-10T01:17:01.289Z,9.30
2018-04-10T01:18:01.158Z,9.26
2018-04-10T01:19:54.035Z,9.19
2018-04-10T01:20:53.935Z,9.29
2018-04-10T01:22:47.294Z,9.19
2018-04-10T01:23:47.193Z,9.04
2018-04-10T01:25:40.014Z,9.18
2018-04-10T01:26:39.915Z,9.01
2018-04-10T01:28:32.798Z,9.08
2018-04-10T01:29:32.728Z,9.09
2018-04-10T01:31:25.516Z,9.08
2018-04-10T01:32:26.540Z,9.03
2018-04-10T01:34:19.818Z,9.11
2018-04-10T01:35:19.701Z,9.06
2018-04-10T01:37:23.707Z,9.11
2018-04-10T01:38:23.627Z,8.99
2018-04-10T01:40:16.470Z,8.93
2018-04-10T01:41:16.382Z,8.96
2018-04-10T01:43:09.725Z,8.89
2018-04-10T01:44:09.628Z,8.85
2018-04-10T01:46:02.981Z,8.83
2018-04-10T01:47:02.395Z,8.74
2018-04-10T01:48:56.065Z,8.81
2018-04-10T01:49:55.963Z,8.77
2018-04-10T01:51:48.816Z,8.80
2018-04-10T01:52:48.685Z,8.88
2018-04-10T01:54:41.711Z,8.72
2018-04-10T01:55:41.458Z,8.72
2018-04-10T01:57:34.311Z,8.77
2018-04-10T01:58:34.192Z,8.71
2018-04-10T02:00:27.100Z,8.63
2018-04-10T02:01:26.976Z,8.57
2018-04-10T02:03:19.811Z,8.59
2018-04-10T02:04:19.728Z,8.52
2018-04-10T02:06:12.588Z,8.63
2018-04-10T02:07:12.442Z,8.49
2018-04-10T02:09:05.288Z,8.59
2018-04-10T02:10:05.198Z,8.59
2018-04-10T02:11:58.087Z,8.55
2018-04-10T02:14:10.854Z,8.57
2018-04-10T02:15:10.775Z,8.62
2018-04-10T02:17:03.643Z,8.62
2018-04-10T02:18:03.587Z,8.67
2018-04-10T02:19:56.343Z,8.57
2018-04-10T02:20:56.289Z,8.41
2018-04-10T02:22:49.132Z,8.52
2018-04-10T02:23:49.000Z,8.42
2018-04-10T02:25:42.354Z,8.50
2018-04-10T02:26:42.285Z,8.44
2018-04-10T02:28:35.155Z,8.47
2018-04-10T02:29:35.007Z,8.46
2018-04-10T02:31:27.882Z,8.55
2018-04-10T02:32:27.764Z,8.59
2018-04-10T02:34:20.642Z,8.50
2018-04-10T02:35:20.548Z,8.49
2018-04-10T02:37:13.395Z,8.44
2018-04-10T02:38:13.261Z,8.44
2018-04-10T02:40:06.113Z,8.42
2018-04-10T02:41:06.048Z,8.44
2018-04-10T02:42:58.856Z,8.41
2018-04-10T02:43:58.761Z,8.34
2018-04-10T02:45:52.884Z,8.41
2018-04-10T02:46:52.602Z,8.37
2018-04-10T02:48:45.380Z,8.49
2018-04-10T02:49:45.283Z,8.42
2018-04-10T02:51:38.170Z,8.47
2018-04-10T02:52:38.039Z,8.35
2018-04-10T02:54:30.930Z,8.37
2018-04-10T02:55:30.793Z,8.26
2018-04-10T02:57:24.180Z,8.44
2018-04-10T02:58:23.571Z,8.24
2018-04-10T03:00:16.382Z,8.24
2018-04-10T03:01:16.280Z,8.20
2018-04-10T03:03:09.241Z,8.14
2018-04-10T03:04:09.135Z,8.10
2018-04-10T03:06:02.003Z,8.26
2018-04-10T03:07:01.885Z,8.28
2018-04-10T03:08:54.758Z,8.29
2018-04-10T03:09:54.627Z,8.29
2018-04-10T03:11:47.486Z,8.41
2018-04-10T03:12:47.381Z,8.20
2018-04-10T03:14:40.239Z,8.23
2018-04-10T03:15:40.132Z,8.17
2018-04-10T03:17:32.976Z,8.17
2018-04-10T03:18:32.887Z,8.17
2018-04-10T03:20:25.738Z,8.10
2018-04-10T03:21:25.632Z,8.04
2018-04-10T03:23:18.479Z,8.09
2018-04-10T03:24:18.390Z,8.05
2018-04-10T03:26:11.235Z,7.91
2018-04-10T03:27:11.180Z,7.94
2018-04-10T03:29:03.991Z,7.94
2018-04-10T03:30:03.884Z,7.95
2018-04-10T03:31:56.753Z,7.94
2018-04-10T03:32:56.630Z,7.95
2018-04-10T03:34:49.477Z,7.92
2018-04-10T03:35:49.516Z,7.84
2018-04-10T03:37:42.375Z,7.87
2018-04-10T03:38:42.239Z,7.87
2018-04-10T03:40:36.615Z,7.92
2018-04-10T03:41:36.523Z,7.87
2018-04-10T03:43:29.474Z,7.81
2018-04-10T03:44:29.377Z,7.83
2018-04-10T03:46:22.292Z,7.81
2018-04-10T03:47:22.126Z,7.86
2018-04-10T03:49:15.103Z,7.87
2018-04-10T03:50:14.970Z,7.92
2018-04-10T03:52:07.763Z,7.95
2018-04-10T03:53:07.696Z,7.96
2018-04-10T03:55:00.571Z,7.92
2018-04-10T03:56:00.471Z,7.94
2018-04-10T03:57:53.370Z,7.92
2018-04-10T03:58:53.226Z,7.99
2018-04-10T04:00:46.077Z,7.91
2018-04-10T04:01:45.985Z,7.92
2018-04-10T04:03:38.848Z,8.02
2018-04-10T04:04:39.289Z,8.01
2018-04-10T04:06:31.576Z,8.10
2018-04-10T04:07:31.479Z,8.10
2018-04-10T04:09:24.527Z,8.12
2018-04-10T04:10:24.225Z,8.06
2018-04-10T04:12:17.159Z,8.06
2018-04-10T04:13:17.073Z,8.09
2018-04-10T04:15:21.431Z,8.02
2018-04-10T04:16:21.081Z,8.10
2018-04-10T04:18:13.952Z,8.04
2018-04-10T04:19:13.850Z,7.99
2018-04-10T04:21:06.581Z,8.02
2018-04-10T04:22:06.496Z,7.88
2018-04-10T04:23:59.257Z,7.95
2018-04-10T04:24:59.155Z,7.95
2018-04-10T04:26:52.011Z,7.95
2018-04-10T04:27:51.783Z,7.88
2018-04-10T04:29:44.569Z,7.96
2018-04-10T04:30:44.436Z,7.91
2018-04-10T04:32:37.292Z,7.95
2018-04-10T04:33:37.189Z,7.92
2018-04-10T04:35:30.578Z,7.99
2018-04-10T04:36:30.446Z,7.95
2018-04-10T04:38:23.244Z,7.95
2018-04-10T04:39:23.109Z,7.94
2018-04-10T04:41:15.964Z,7.91
2018-04-10T04:42:15.837Z,7.86
2018-04-10T04:44:09.102Z,7.92
2018-04-10T04:45:08.994Z,7.87
2018-04-10T04:47:01.854Z,7.87
2018-04-10T04:48:01.741Z,7.80
2018-04-10T04:49:54.485Z,7.78
2018-04-10T04:50:54.389Z,7.81
2018-04-10T04:52:47.299Z,7.87
2018-04-10T04:53:47.174Z,7.86
2018-04-10T04:55:40.041Z,7.96
2018-04-10T04:56:39.928Z,7.94
2018-04-10T04:58:32.758Z,7.88
2018-04-10T04:59:32.677Z,7.95
2018-04-10T05:01:25.380Z,8.01
2018-04-10T05:02:25.313Z,7.92
2018-04-10T05:04:18.558Z,7.92
2018-04-10T05:05:18.443Z,7.98
2018-04-10T05:07:11.295Z,7.88
2018-04-10T05:08:11.189Z,8.02
2018-04-10T05:10:03.966Z,8.02
2018-04-10T05:11:03.859Z,8.10
2018-04-10T05:12:56.619Z,8.09
2018-04-10T05:13:56.498Z,8.13
2018-04-10T05:15:49.478Z,8.06
2018-04-10T05:16:49.276Z,8.01
2018-04-10T05:18:41.983Z,8.01
2018-04-10T05:19:41.899Z,8.06
2018-04-10T05:21:34.643Z,8.16
2018-04-10T05:22:34.531Z,8.20
2018-04-10T05:24:27.300Z,8.26
2018-04-10T05:25:27.193Z,8.39
2018-04-10T05:27:20.046Z,8.42
2018-04-10T05:28:19.821Z,8.46
2018-04-10T05:30:12.569Z,8.44
2018-04-10T05:31:12.483Z,8.39
2018-04-10T05:33:05.241Z,8.42
2018-04-10T05:34:05.113Z,8.46
2018-04-10T05:35:57.906Z,8.46
2018-04-10T05:36:57.763Z,8.47
2018-04-10T05:38:50.788Z,8.49
2018-04-10T05:39:50.629Z,8.50
2018-04-10T05:41:43.377Z,8.57
2018-04-10T05:42:43.261Z,8.56
2018-04-10T05:44:36.121Z,8.62
2018-04-10T05:45:36.004Z,8.63
2018-04-10T05:47:28.860Z,8.65
2018-04-10T05:48:28.767Z,8.72
2018-04-10T05:50:21.530Z,8.71
2018-04-10T05:51:21.405Z,8.74
2018-04-10T05:53:18.420Z,8.81
2018-04-10T05:54:17.409Z,8.75
2018-04-10T05:56:11.660Z,8.86
2018-04-10T05:57:11.548Z,8.85
2018-04-10T05:59:04.774Z,8.85
2018-04-10T06:00:04.678Z,8.93
2018-04-10T06:01:57.559Z,8.92
2018-04-10T06:02:57.421Z,8.93
2018-04-10T06:04:50.170Z,9.04
2018-04-10T06:05:50.078Z,9.06
2018-04-10T06:07:42.846Z,9.16
2018-04-10T06:08:42.746Z,9.23
2018-04-10T06:10:35.589Z,9.30
2018-04-10T06:11:35.466Z,9.27
2018-04-10T06:13:28.754Z,9.30
2018-04-10T06:14:28.623Z,9.30
2018-04-10T06:16:21.397Z,9.48
2018-04-10T06:17:21.289Z,9.47
2018-04-10T06:19:14.051Z,9.66
2018-04-10T06:20:13.939Z,9.65
2018-04-10T06:22:06.707Z,9.69
2018-04-10T06:23:06.657Z,9.75
2018-04-10T06:25:04.644Z,9.84
2018-04-10T06:26:02.471Z,9.98
2018-04-10T06:27:56.598Z,10.21
2018-04-10T06:28:56.275Z,10.24
2018-04-10T06:30:49.121Z,10.42
2018-04-10T06:31:49.013Z,10.58
2018-04-10T06:33:42.001Z,10.67
2018-04-10T06:34:41.895Z,10.75
2018-04-10T06:36:34.623Z,10.90
2018-04-10T06:37:34.516Z,10.86
2018-04-10T06:39:27.277Z,11.09
2018-04-10T06:40:27.188Z,11.08
2018-04-10T06:42:19.939Z,11.11
2018-04-10T06:43:19.822Z,11.11
2018-04-10T06:45:12.592Z,11.16
2018-04-10T06:46:12.471Z,11.23
2018-04-10T06:48:05.736Z,11.31
2018-04-10T06:49:05.629Z,11.34
2018-04-10T06:50:58.403Z,11.48
2018-04-10T06:51:58.271Z,11.48
2018-04-10T06:53:52.621Z,11.59
2018-04-10T06:54:51.937Z,11.56
2018-04-10T06:56:44.704Z,11.67
2018-04-10T06:57:44.586Z,11.71
2018-04-10T06:59:37.457Z,11.88
2018-04-10T07:00:37.332Z,11.87
2018-04-10T07:02:30.592Z,12.03
2018-04-10T07:03:30.521Z,12.13
2018-04-10T07:05:23.900Z,12.21
2018-04-10T07:06:23.670Z,12.22
2018-04-10T07:08:16.943Z,12.30
2018-04-10T07:09:16.819Z,12.29
2018-04-10T07:11:09.708Z,12.35
2018-04-10T07:12:09.570Z,12.44
2018-04-10T07:14:02.324Z,12.43
2018-04-10T07:15:02.213Z,12.44
2018-04-10T07:16:55.591Z,12.54
2018-04-10T07:17:55.454Z,12.58
2018-04-10T07:19:48.624Z,12.66
2018-04-10T07:20:48.528Z,12.69
2018-04-10T07:22:41.418Z,12.86
2018-04-10T07:23:41.277Z,12.91
2018-04-10T07:25:34.019Z,12.93
2018-04-10T07:26:33.938Z,13.02
2018-04-10T07:28:28.303Z,13.04
2018-04-10T07:29:27.731Z,13.06
2018-04-10T07:31:20.543Z,13.13
2018-04-10T07:32:20.453Z,13.09
2018-04-10T07:34:13.225Z,13.27
2018-04-10T07:35:13.113Z,13.26
2018-04-10T07:37:06.472Z,13.43
2018-04-10T07:38:06.496Z,13.51
2018-04-10T07:39:59.632Z,13.67
2018-04-10T07:40:59.524Z,13.76
2018-04-10T07:42:52.258Z,13.83
2018-04-10T07:43:52.188Z,13.75
2018-04-10T07:45:45.035Z,13.88
2018-04-10T07:46:44.822Z,13.98
2018-04-10T07:48:37.573Z,13.97
2018-04-10T07:49:37.468Z,14.08
2018-04-10T07:51:30.327Z,14.12
2018-04-10T07:52:30.211Z,14.05
2018-04-10T07:54:22.992Z,14.12
2018-04-10T07:55:22.857Z,14.15
2018-04-10T07:57:15.743Z,14.28
2018-04-10T07:58:15.604Z,14.38
2018-04-10T08:00:08.460Z,14.51
2018-04-10T08:01:08.365Z,14.51
2018-04-10T08:03:01.228Z,14.69
2018-04-10T08:04:01.105Z,14.67
2018-04-10T08:05:53.964Z,14.78
2018-04-10T08:06:53.759Z,14.83
2018-04-10T08:08:46.620Z,14.85
2018-04-10T08:09:46.508Z,14.90
2018-04-10T08:11:39.255Z,15.01
2018-04-10T08:12:39.168Z,14.96
2018-04-10T08:14:32.425Z,15.19
2018-04-10T08:15:32.341Z,15.19
2018-04-10T08:17:25.146Z,15.27
2018-04-10T08:18:25.056Z,15.35
2018-04-10T08:20:17.923Z,15.32
2018-04-10T08:21:17.806Z,15.44
2018-04-10T08:23:10.556Z,15.48
2018-04-10T08:24:10.481Z,15.48
2018-04-10T08:26:03.328Z,15.48
2018-04-10T08:27:03.215Z,15.54
2018-04-10T08:28:56.046Z,15.59
2018-04-10T08:29:55.979Z,15.58
2018-04-10T08:31:48.877Z,15.73
2018-04-10T08:32:48.699Z,15.76
2018-04-10T08:34:41.541Z,15.78
2018-04-10T08:35:41.452Z,15.85
2018-04-10T08:37:34.308Z,15.84
2018-04-10T08:38:34.200Z,15.96
2018-04-10T08:40:27.518Z,16.09
2018-04-10T08:41:27.366Z,16.05
2018-04-10T08:43:20.203Z,16.02
2018-04-10T08:44:20.103Z,16.03
2018-04-10T08:46:12.872Z,16.16
2018-04-10T08:47:12.768Z,16.37
2018-04-10T08:49:05.595Z,16.43
2018-04-10T08:50:05.502Z,16.59
2018-04-10T08:51:58.395Z,16.37
2018-04-10T08:52:58.253Z,16.43
2018-04-10T08:54:51.030Z,16.57
2018-04-10T08:55:50.902Z,16.58
2018-04-10T08:57:43.776Z,16.76
2018-04-10T08:58:43.643Z,16.77
2018-04-10T09:00:36.493Z,16.83
2018-04-10T09:01:36.400Z,16.90
2018-04-10T09:03:29.313Z,17.02
2018-04-10T09:04:29.053Z,17.02
2018-04-10T09:06:21.888Z,16.99
2018-04-10T09:07:21.816Z,17.07
2018-04-10T09:09:14.683Z,17.10
2018-04-10T09:10:14.542Z,17.07
2018-04-10T09:12:07.331Z,17.25
2018-04-10T09:13:07.238Z,17.12
2018-04-10T09:15:00.591Z,17.14
2018-04-10T09:16:00.495Z,17.28
2018-04-10T09:17:53.721Z,17.31
2018-04-10T09:18:53.638Z,17.37
2018-04-10T09:20:46.508Z,17.35
2018-04-10T09:21:46.470Z,17.25
2018-04-10T09:23:39.297Z,17.32
2018-04-10T09:24:39.158Z,17.31
2018-04-10T09:26:32.912Z,17.43
2018-04-10T09:27:32.189Z,17.50
2018-04-10T09:29:24.773Z,17.50
2018-04-10T09:30:26.640Z,17.54
2018-04-10T09:32:18.929Z,17.72
2018-04-10T09:33:19.580Z,17.73
2018-04-10T09:35:11.693Z,17.72
2018-04-10T09:36:11.709Z,17.68
2018-04-10T09:38:05.019Z,17.68
2018-04-10T09:39:04.845Z,17.75
2018-04-10T09:40:57.656Z,17.93
2018-04-10T09:41:57.560Z,18.01
2018-04-10T09:43:50.427Z,18.11
2018-04-10T09:44:50.305Z,18.15
2018-04-10T09:46:43.169Z,18.23
2018-04-10T09:47:43.192Z,18.34
2018-04-10T09:49:35.925Z,18.31
2018-04-10T09:50:35.820Z,18.45
2018-04-10T09:52:28.674Z,18.39
2018-04-10T09:53:28.564Z,18.36
2018-04-10T09:55:21.427Z,18.58
2018-04-10T09:56:21.329Z,18.58
2018-04-10T09:58:14.205Z,18.63
2018-04-10T09:59:14.064Z,18.74
2018-04-10T10:01:06.961Z,18.68
2018-04-10T10:02:06.836Z,18.89
2018-04-10T10:04:00.060Z,18.79
2018-04-10T10:04:59.974Z,18.86
2018-04-10T10:06:52.830Z,18.58
2018-04-10T10:07:52.726Z,18.54
2018-04-10T10:09:45.980Z,18.57
2018-04-10T10:10:45.877Z,18.57
2018-04-10T10:12:38.752Z,18.64
2018-04-10T10:13:38.641Z,18.70
2018-04-10T10:15:31.485Z,18.88
2018-04-10T10:16:31.391Z,18.85
2018-04-10T10:18:24.260Z,18.88
2018-04-10T10:19:24.133Z,18.88
2018-04-10T10:21:16.980Z,18.64
2018-04-10T10:22:16.897Z,18.54
2018-04-10T10:24:09.738Z,18.54
2018-04-10T10:25:09.635Z,18.56
2018-04-10T10:27:10.987Z,18.54
2018-04-10T10:28:10.880Z,18.61
2018-04-10T10:30:03.741Z,18.94
2018-04-10T10:31:03.695Z,19.08
2018-04-10T10:32:56.472Z,19.05
2018-04-10T10:33:56.397Z,19.00
2018-04-10T10:35:49.756Z,19.09
2018-04-10T10:36:49.187Z,19.04
2018-04-10T10:38:41.957Z,19.15
2018-04-10T10:39:41.876Z,19.26
2018-04-10T10:41:34.741Z,19.24
2018-04-10T10:42:34.647Z,19.39
2018-04-10T10:44:27.459Z,19.57
2018-04-10T10:45:27.365Z,19.45
2018-04-10T10:47:20.257Z,19.19
2018-04-10T10:48:20.115Z,19.24
2018-04-10T10:50:12.959Z,19.56
2018-04-10T10:51:12.876Z,19.52
2018-04-10T10:53:05.745Z,19.49
2018-04-10T10:54:05.635Z,19.62
2018-04-10T10:55:58.475Z,19.50
2018-04-10T10:56:58.403Z,19.57
2018-04-10T10:58:51.249Z,19.62
2018-04-10T10:59:51.143Z,19.67
2018-04-10T11:01:43.980Z,19.79
2018-04-10T11:02:43.868Z,19.79
2018-04-10T11:04:36.758Z,19.78
2018-04-10T11:05:36.618Z,19.92
2018-04-10T11:07:29.511Z,20.05
2018-04-10T11:08:29.367Z,20.18
2018-04-10T11:10:22.251Z,20.33
2018-04-10T11:11:22.119Z,20.18
2018-04-10T11:13:15.368Z,20.11
2018-04-10T11:14:15.283Z,20.14
2018-04-10T11:16:08.181Z,20.36
2018-04-10T11:17:08.084Z,20.14
2018-04-10T11:19:00.876Z,20.08
2018-04-10T11:20:00.775Z,20.07
2018-04-10T11:21:53.629Z,20.17
2018-04-10T11:22:53.523Z,20.12
2018-04-10T11:24:46.438Z,20.17
2018-04-10T11:25:46.281Z,20.07
2018-04-10T11:27:39.667Z,20.12
2018-04-10T11:28:39.542Z,20.04
2018-04-10T11:30:32.378Z,19.90
2018-04-10T11:31:32.379Z,20.08
2018-04-10T11:33:25.158Z,20.23
2018-04-10T11:34:25.035Z,20.29
2018-04-10T11:36:17.888Z,20.42
2018-04-10T11:37:17.840Z,20.52
2018-04-10T11:39:10.678Z,20.44
2018-04-10T11:40:10.537Z,20.58
2018-04-10T11:42:03.412Z,20.73
2018-04-10T11:43:03.281Z,20.74
2018-04-10T11:44:56.171Z,21.04
2018-04-10T11:45:56.053Z,21.29
2018-04-10T11:47:48.875Z,21.53
2018-04-10T11:48:48.798Z,21.63
2018-04-10T11:50:41.712Z,21.45
2018-04-10T11:51:41.539Z,21.38
2018-04-10T11:53:34.892Z,21.34
2018-04-10T11:54:34.805Z,21.19
2018-04-10T11:56:27.649Z,21.43
2018-04-10T11:57:27.554Z,21.35
2018-04-10T11:59:20.403Z,21.25
2018-04-10T12:00:20.315Z,21.32
2018-04-10T12:02:13.167Z,21.01
2018-04-10T12:03:13.047Z,20.85
2018-04-10T12:05:06.398Z,20.98
2018-04-10T12:06:06.305Z,20.71
2018-04-10T12:07:59.177Z,21.04
2018-04-10T12:08:59.089Z,21.18
2018-04-10T12:10:51.899Z,21.34
2018-04-10T12:11:51.829Z,21.30
2018-04-10T12:13:44.692Z,21.11
2018-04-10T12:14:44.572Z,21.34
2018-04-10T12:16:37.903Z,21.45
2018-04-10T12:17:37.823Z,21.59
2018-04-10T12:19:31.217Z,21.73
2018-04-10T12:20:31.096Z,21.90
2018-04-10T12:22:23.939Z,21.94
2018-04-10T12:23:23.834Z,21.98
2018-04-10T12:25:16.732Z,21.75
2018-04-10T12:26:16.579Z,21.63
2018-04-10T12:28:09.427Z,21.34
2018-04-10T12:29:09.371Z,21.55
2018-04-10T12:31:02.313Z,21.71
2018-04-10T12:32:02.184Z,22.04
2018-04-10T12:33:55.039Z,22.19
2018-04-10T12:34:54.932Z,21.82
2018-04-10T12:36:47.821Z,21.80
2018-04-10T12:37:47.687Z,21.88
2018-04-10T12:39:40.518Z,21.93
2018-04-10T12:40:40.440Z,22.07
2018-04-10T12:42:33.305Z,22.22
2018-04-10T12:43:33.204Z,22.21
2018-04-10T12:45:26.015Z,22.28
2018-04-10T12:46:25.941Z,22.27
2018-04-10T12:48:18.822Z,21.94
2018-04-10T12:49:18.682Z,21.94
2018-04-10T12:51:11.512Z,22.07
2018-04-10T12:52:11.433Z,22.34
2018-04-10T12:54:04.303Z,22.52
2018-04-10T12:55:04.198Z,22.64
2018-04-10T12:56:57.027Z,22.52
2018-04-10T12:57:56.944Z,22.59
2018-04-10T12:59:49.830Z,22.93
2018-04-10T13:00:49.795Z,22.81
2018-04-10T13:02:42.533Z,22.99
2018-04-10T13:03:42.434Z,22.81
2018-04-10T13:05:35.303Z,22.59
2018-04-10T13:06:35.194Z,22.62
2018-04-10T13:08:28.024Z,22.68
2018-04-10T13:09:27.933Z,22.86
2018-04-10T13:11:20.892Z,23.10
2018-04-10T13:12:20.784Z,22.99
2018-04-10T13:14:13.634Z,22.70
2018-04-10T13:15:13.535Z,22.92
2018-04-10T13:17:06.394Z,22.89
2018-04-10T13:18:06.327Z,22.93
2018-04-10T13:19:59.734Z,22.91
2018-04-10T13:20:59.556Z,22.59
2018-04-10T13:22:52.916Z,22.19
2018-04-10T13:23:52.800Z,22.03
2018-04-10T13:25:45.660Z,21.84
2018-04-10T13:26:45.569Z,21.84
2018-04-10T13:28:38.407Z,21.75
2018-04-10T13:29:38.314Z,21.80
2018-04-10T13:31:31.543Z,21.81
2018-04-10T13:32:31.494Z,21.73
2018-04-10T13:34:24.313Z,21.90
2018-04-10T13:35:24.207Z,21.98
2018-04-10T13:37:17.103Z,22.00
2018-04-10T13:38:16.961Z,22.04
2018-04-10T13:40:10.216Z,22.46
2018-04-10T13:41:10.119Z,22.55
2018-04-10T13:43:02.988Z,22.76
2018-04-10T13:44:02.906Z,22.37
2018-04-10T13:45:55.819Z,22.04
2018-04-10T13:46:55.718Z,22.22
2018-04-10T13:48:49.020Z,22.01
2018-04-10T13:49:48.878Z,21.97
2018-04-10T13:51:41.725Z,22.03
2018-04-10T13:52:41.653Z,22.16
2018-04-10T13:54:34.507Z,22.67
2018-04-10T13:55:34.413Z,22.98
2018-04-10T13:57:27.741Z,23.15
2018-04-10T13:58:27.762Z,23.25
2018-04-10T14:00:20.496Z,23.01
2018-04-10T14:01:20.603Z,23.26
2018-04-10T14:03:13.232Z,23.08
2018-04-10T14:04:13.137Z,22.91
2018-04-10T14:06:07.044Z,22.83
2018-04-10T14:07:06.935Z,22.83
2018-04-10T14:09:01.314Z,22.37
2018-04-10T14:10:01.212Z,22.31
2018-04-10T14:11:54.045Z,22.15
2018-04-10T14:12:53.954Z,22.21
2018-04-10T14:14:46.901Z,22.07
2018-04-10T14:15:46.704Z,22.13
2018-04-10T14:17:39.577Z,22.36
2018-04-10T14:18:39.449Z,22.25
2018-04-10T14:20:33.821Z,22.48
2018-04-10T14:21:33.755Z,22.67
2018-04-10T14:23:27.649Z,23.03
2018-04-10T14:24:27.519Z,23.26
2018-04-10T14:26:20.355Z,23.55
2018-04-10T14:27:20.255Z,23.73
2018-04-10T14:29:13.123Z,23.92
2018-04-10T14:30:13.020Z,23.76
2018-04-10T14:32:05.941Z,23.67
2018-04-10T14:33:05.855Z,23.76
2018-04-10T14:34:58.718Z,24.00
2018-04-10T14:35:58.607Z,24.15
2018-04-10T14:37:51.469Z,24.47
2018-04-10T14:38:51.366Z,24.43
2018-04-10T14:40:44.830Z,24.70
2018-04-10T14:41:44.713Z,24.94
2018-04-10T14:43:37.856Z,24.86
2018-04-10T14:44:37.493Z,24.52
2018-04-10T14:46:30.331Z,24.90
2018-04-10T14:47:30.244Z,25.01
2018-04-10T14:49:23.073Z,24.90
2018-04-10T14:50:22.978Z,24.36
2018-04-10T14:54:00.492Z,24.13
2018-04-10T14:54:54.384Z,24.52
2018-04-10T14:57:55.939Z,25.14
2018-04-10T14:58:55.866Z,25.40
2018-04-10T15:01:13.827Z,25.98
2018-04-10T15:02:13.723Z,26.20
2018-04-10T15:05:52.660Z,26.52
2018-04-10T15:06:45.143Z,26.57
2018-04-10T15:08:45.794Z,26.95
2018-04-10T15:09:45.516Z,26.86
2018-04-10T15:11:50.906Z,26.68
2018-04-10T15:12:50.463Z,26.70
2018-04-10T15:14:43.326Z,27.04
2018-04-10T15:15:43.204Z,27.13
2018-04-10T15:17:36.756Z,27.08
2018-04-10T15:18:36.672Z,27.19
2018-04-10T15:20:30.280Z,27.25
2018-04-10T15:21:29.425Z,26.94
2018-04-10T15:23:22.255Z,27.12
2018-04-10T15:24:22.195Z,26.89
2018-04-10T15:26:15.138Z,27.19
2018-04-10T15:27:15.024Z,27.08
2018-04-10T15:29:08.392Z,27.49
2018-04-10T15:30:07.983Z,27.41
2018-04-10T15:32:00.850Z,27.42
2018-04-10T15:33:00.741Z,27.52
2018-04-10T15:34:53.622Z,27.69
2018-04-10T15:35:53.606Z,27.47
2018-04-10T15:37:46.360Z,27.44
2018-04-10T15:38:46.250Z,26.86
2018-04-10T15:40:39.081Z,26.90
2018-04-10T15:41:38.977Z,27.03
2018-04-10T15:43:31.837Z,26.98
2018-04-10T15:44:31.737Z,26.97
2018-04-10T15:46:24.554Z,27.30
2018-04-10T15:47:24.490Z,27.34
2018-04-10T15:49:17.450Z,27.53
2018-04-10T15:50:17.342Z,27.52
2018-04-10T15:52:10.761Z,27.57
2018-04-10T15:53:10.592Z,27.49
2018-04-10T15:55:03.460Z,27.52
2018-04-10T15:56:03.362Z,27.60
2018-04-10T15:57:56.181Z,27.16
2018-04-10T15:58:56.088Z,27.10
2018-04-10T16:00:48.933Z,26.86
2018-04-10T16:01:48.852Z,26.34
2018-04-10T16:03:41.775Z,25.89
2018-04-10T16:04:41.736Z,25.61
2018-04-10T16:06:34.536Z,25.15
2018-04-10T16:07:34.446Z,24.97
2018-04-10T16:09:27.644Z,24.68
2018-04-10T16:10:27.309Z,24.55
2018-04-10T16:12:20.144Z,24.31
2018-04-10T16:13:20.052Z,24.18
2018-04-10T16:15:13.416Z,24.03
2018-04-10T16:16:13.313Z,24.00
2018-04-10T16:18:06.176Z,23.94
2018-04-10T16:19:06.060Z,23.96
2018-04-10T16:20:59.004Z,23.85
2018-04-10T16:21:58.913Z,23.96
2018-04-10T16:23:51.778Z,24.08
2018-04-10T16:24:51.680Z,24.06
2018-04-10T16:26:44.592Z,23.73
2018-04-10T16:27:44.424Z,23.81
2018-04-10T16:29:37.801Z,23.56
2018-04-10T16:30:37.670Z,23.59
2018-04-10T16:32:30.513Z,23.37
2018-04-10T16:33:30.423Z,23.31
2018-04-10T16:35:23.269Z,23.17
2018-04-10T16:36:23.176Z,23.25
2018-04-10T16:38:16.010Z,23.23
2018-04-10T16:39:15.941Z,23.26
2018-04-10T16:41:08.775Z,23.48
2018-04-10T16:42:08.663Z,23.63
2018-04-10T16:44:01.526Z,23.60
2018-04-10T16:45:01.415Z,23.60
2018-04-10T16:46:54.259Z,23.60
2018-04-10T16:47:54.166Z,23.67
2018-04-10T16:49:47.098Z,23.63
2018-04-10T16:50:47.020Z,23.63
2018-04-10T16:52:39.871Z,23.52
2018-04-10T16:53:39.809Z,23.60
2018-04-10T16:55:32.616Z,23.61
2018-04-10T16:56:32.519Z,23.67
2018-04-10T16:58:25.374Z,23.59
2018-04-10T16:59:25.287Z,23.54
2018-04-10T17:01:18.110Z,23.14
2018-04-10T17:02:18.024Z,23.15
2018-04-10T17:04:11.085Z,23.03
2018-04-10T17:05:10.762Z,23.07
2018-04-10T17:07:03.606Z,22.95
2018-04-10T17:08:03.566Z,22.83
2018-04-10T17:09:56.471Z,22.76
2018-04-10T17:10:56.402Z,22.68
2018-04-10T17:12:49.802Z,22.68
2018-04-10T17:13:49.767Z,22.64
2018-04-10T17:15:47.600Z,22.58
2018-04-10T17:16:47.494Z,22.55
2018-04-10T17:18:40.915Z,22.49
2018-04-10T17:19:40.245Z,22.28
2018-04-10T17:21:33.083Z,22.37
2018-04-10T17:22:33.015Z,22.43
2018-04-10T17:24:25.945Z,22.52
2018-04-10T17:25:25.857Z,22.62
2018-04-10T17:27:18.775Z,22.67
2018-04-10T17:28:18.706Z,22.61
2018-04-10T17:30:11.587Z,22.43
2018-04-10T17:31:11.461Z,22.37
2018-04-10T17:33:04.403Z,22.25
2018-04-10T17:34:04.310Z,22.27
2018-04-10T17:35:57.248Z,22.04
2018-04-10T17:36:57.180Z,22.03
2018-04-10T17:38:50.021Z,21.84
2018-04-10T17:39:49.900Z,21.73
2018-04-10T17:41:42.758Z,21.62
2018-04-10T17:42:42.687Z,21.53
2018-04-10T17:44:36.513Z,21.44
2018-04-10T17:45:36.422Z,21.32
2018-04-10T17:47:29.294Z,21.29
2018-04-10T17:48:29.193Z,21.08
2018-04-10T17:50:22.016Z,20.90
2018-04-10T17:51:21.929Z,20.73
2018-04-10T17:53:14.791Z,20.64
2018-04-10T17:54:14.718Z,20.53
2018-04-10T17:56:07.516Z,20.46
2018-04-10T17:57:07.431Z,20.46
2018-04-10T17:59:00.387Z,20.34
2018-04-10T18:00:00.275Z,20.27
2018-04-10T18:01:53.110Z,20.15
2018-04-10T18:02:53.033Z,20.18
2018-04-10T18:04:45.878Z,20.00
2018-04-10T18:05:45.790Z,19.92
2018-04-10T18:07:38.642Z,19.87
2018-04-10T18:08:38.525Z,19.81
2018-04-10T18:10:31.885Z,19.64
2018-04-10T18:11:31.789Z,19.54
2018-04-10T18:13:24.827Z,19.45
2018-04-10T18:14:24.625Z,19.41
2018-04-10T18:16:20.569Z,19.30
2018-04-10T18:17:20.466Z,19.20
2018-04-10T18:19:13.336Z,19.08
2018-04-10T18:20:13.234Z,18.89
2018-04-10T18:22:06.173Z,18.76
2018-04-10T18:23:06.057Z,18.68
2018-04-10T18:24:58.891Z,18.58
2018-04-10T18:25:58.822Z,18.43
2018-04-10T18:27:51.716Z,18.38
2018-04-10T18:28:51.573Z,18.27
2018-04-10T18:30:44.441Z,18.15
2018-04-10T18:31:44.336Z,18.13
2018-04-10T18:33:37.197Z,17.94
2018-04-10T18:34:37.097Z,17.96
2018-04-10T18:36:30.422Z,17.87
2018-04-10T18:37:30.314Z,17.76
2018-04-10T18:39:23.207Z,17.75
2018-04-10T18:40:23.095Z,17.69
2018-04-10T18:42:15.901Z,17.59
2018-04-10T18:43:15.832Z,17.59
2018-04-10T18:45:08.662Z,17.57
2018-04-10T18:46:08.570Z,17.49
2018-04-10T18:48:01.396Z,17.35
2018-04-10T18:49:01.311Z,17.37
2018-04-10T18:50:54.195Z,17.16